createdAt,value
2022-11-02T00:00:51.572Z,9.28
2022-11-02T00:03:45.933Z,9.25
2022-11-02T00:14:24.269Z,8.50
2022-11-02T00:28:44.807Z,9.68
2022-11-02T00:31:29.528Z,9.48
2022-11-02T00:34:03.380Z,9.71
2022-11-02T00:36:36.309Z,9.88
2022-11-02T00:39:09.994Z,10.12
2022-11-02T00:41:46.342Z,9.70
2022-11-02T00:44:16.241Z,10.31
2022-11-02T00:47:13.422Z,10.13
2022-11-02T00:49:47.777Z,9.94
2022-11-02T00:52:17.979Z,10.06
2022-11-02T00:54:57.894Z,10.33
2022-11-02T00:57:30.445Z,10.43
2022-11-02T01:00:59.067Z,10.16
2022-11-02T01:04:09.624Z,10.24
2022-11-02T01:06:44.238Z,10.12
2022-11-02T01:09:17.668Z,10.04
2022-11-02T01:11:52.738Z,10.41
2022-11-02T01:14:26.071Z,10.20
2022-11-02T01:17:01.502Z,10.50
2022-11-02T01:19:39.107Z,10.62
2022-11-02T01:22:18.125Z,10.62
2022-11-02T01:25:05.607Z,10.24
2022-11-02T01:27:41.492Z,10.97
2022-11-02T01:30:18.013Z,10.49
2022-11-02T01:33:03.888Z,10.72
2022-11-02T01:35:41.524Z,10.34
2022-11-02T01:38:13.988Z,9.74
2022-11-02T01:40:49.587Z,10.62
2022-11-02T01:43:40.777Z,10.42
2022-11-02T01:46:12.720Z,10.98
2022-11-02T01:49:01.516Z,10.32
2022-11-02T01:52:02.145Z,10.40
2022-11-02T01:54:40.556Z,11.12
2022-11-02T01:57:13.450Z,11.19
2022-11-02T01:59:50.737Z,11.70
2022-11-02T02:02:34.145Z,11.39
2022-11-02T02:05:18.526Z,10.88
2022-11-02T02:07:52.007Z,10.97
2022-11-02T02:10:23.352Z,11.02
2022-11-02T02:12:59.923Z,11.54
2022-11-02T02:15:48.224Z,10.96
2022-11-02T02:18:36.426Z,10.70
2022-11-02T02:21:52.287Z,11.00
2022-11-02T02:24:53.651Z,9.67
2022-11-02T02:27:46.310Z,10.55
2022-11-02T02:30:18.511Z,10.81
2022-11-02T02:33:06.048Z,10.86
2022-11-02T02:35:53.791Z,10.95
2022-11-02T02:38:34.340Z,11.20
2022-11-02T02:41:13.053Z,11.03
2022-11-02T02:43:51.007Z,10.81
2022-11-02T02:46:34.507Z,10.90
2022-11-02T02:49:07.885Z,11.38
2022-11-02T02:51:40.673Z,9.97
2022-11-02T02:54:22.285Z,10.93
2022-11-02T02:57:06.103Z,11.60
2022-11-02T02:59:51.615Z,11.26
2022-11-02T03:02:37.701Z,10.83
2022-11-02T03:05:28.278Z,11.05
2022-11-02T03:08:05.961Z,11.08
2022-11-02T03:10:52.151Z,11.53
2022-11-02T03:13:37.253Z,11.26
2022-11-02T03:16:32.487Z,11.19
2022-11-02T03:19:22.174Z,11.10
2022-11-02T03:22:07.712Z,11.13
2022-11-02T03:25:02.197Z,11.59
2022-11-02T03:27:49.839Z,11.37
2022-11-02T03:30:28.514Z,11.00
2022-11-02T03:33:20.117Z,11.35
2022-11-02T03:35:58.521Z,11.34
2022-11-02T03:38:43.193Z,10.81
2022-11-02T03:41:22.013Z,11.54
2022-11-02T03:44:00.147Z,11.19
2022-11-02T03:46:36.191Z,11.04
2022-11-02T03:49:17.461Z,11.62
2022-11-02T03:51:50.757Z,11.51
2022-11-02T03:54:50.877Z,11.29
2022-11-02T03:57:31.765Z,10.94
2022-11-02T04:00:35.444Z,10.65
2022-11-02T04:03:13.729Z,11.22
2022-11-02T04:05:53.193Z,10.94
2022-11-02T04:08:44.217Z,11.04
2022-11-02T04:11:38.743Z,11.19
2022-11-02T04:14:32.611Z,11.39
2022-11-02T04:17:22.184Z,11.47
2022-11-02T04:20:02.640Z,11.50
2022-11-02T04:22:54.371Z,11.50
2022-11-02T04:25:27.721Z,11.56
2022-11-02T04:28:23.293Z,11.43
2022-11-02T04:31:02.358Z,11.81
2022-11-02T04:33:41.238Z,11.53
2022-11-02T04:36:16.863Z,11.61
2022-11-02T04:38:54.361Z,12.03
2022-11-02T04:41:43.816Z,11.80
2022-11-02T04:44:41.531Z,11.63
2022-11-02T04:47:21.479Z,11.64
2022-11-02T04:49:53.614Z,11.79
2022-11-02T04:52:25.817Z,11.90
2022-11-02T04:55:01.532Z,11.82
2022-11-02T04:57:33.242Z,10.59
2022-11-02T05:00:08.758Z,11.30
2022-11-02T05:02:38.626Z,11.59
2022-11-02T05:05:13.987Z,11.67
2022-11-02T05:40:18.116Z,11.21
2022-11-02T07:14:46.562Z,11.60
2022-11-02T07:46:17.629Z,11.25
2022-11-02T08:17:32.109Z,11.34
2022-11-02T09:20:06.142Z,11.32
2022-11-02T09:51:27.314Z,11.33
2022-11-02T10:22:42.265Z,11.46
2022-11-02T11:25:41.887Z,11.60
2022-11-02T13:00:02.959Z,11.24
2022-11-02T13:03:05.201Z,11.80
2022-11-02T13:06:05.439Z,12.00
2022-11-02T13:09:09.702Z,12.42
2022-11-02T13:12:11.657Z,12.47
2022-11-02T13:15:29.311Z,12.27
2022-11-02T13:18:54.490Z,12.63
2022-11-02T13:22:05.603Z,12.77
2022-11-02T13:24:59.877Z,12.21
2022-11-02T13:27:41.664Z,12.27
2022-11-02T13:33:54.451Z,11.76
2022-11-02T13:40:09.664Z,11.59
2022-11-02T13:44:05.252Z,11.81
2022-11-02T13:48:16.617Z,11.33
2022-11-02T13:51:10.121Z,10.95
2022-11-02T13:54:10.479Z,11.33
2022-11-02T14:04:12.462Z,10.80
2022-11-02T14:07:08.207Z,11.31
2022-11-02T14:10:01.790Z,11.29
2022-11-02T14:13:40.546Z,10.95
2022-11-02T14:17:27.183Z,10.40
2022-11-02T14:21:14.521Z,10.21
2022-11-02T14:24:24.429Z,10.97
2022-11-02T14:27:31.504Z,10.29
2022-11-02T14:30:54.285Z,10.13
2022-11-02T14:34:14.152Z,10.71
2022-11-02T14:38:17.292Z,10.81
2022-11-02T14:41:42.432Z,10.53
2022-11-02T14:44:38.449Z,10.28
2022-11-02T14:47:21.633Z,10.41
2022-11-02T14:50:30.768Z,10.29
2022-11-02T14:53:16.854Z,10.42
2022-11-02T14:56:14.937Z,11.01
2022-11-02T14:59:41.650Z,10.27
2022-11-02T15:02:55.411Z,10.39
2022-11-02T15:06:20.562Z,10.17
2022-11-02T15:14:05.867Z,9.96
2022-11-02T15:18:05.565Z,8.62
2022-11-02T15:22:03.965Z,8.89
2022-11-02T15:28:44.530Z,9.39
2022-11-02T15:32:04.685Z,9.34
2022-11-02T15:35:56.463Z,8.93
2022-11-02T15:42:54.947Z,9.14
2022-11-02T15:47:06.473Z,9.51
2022-11-02T15:50:10.960Z,9.71
2022-11-02T15:53:23.328Z,9.38
2022-11-02T15:57:22.865Z,9.07
2022-11-02T16:00:21.925Z,9.82
2022-11-02T16:03:18.551Z,9.67
2022-11-02T16:10:26.268Z,9.21
2022-11-02T16:19:14.907Z,8.96
2022-11-02T16:22:13.525Z,8.95
2022-11-02T16:25:16.157Z,9.14
2022-11-02T16:28:45.788Z,8.91
2022-11-02T16:31:24.252Z,9.02
2022-11-02T16:39:48.802Z,8.22
2022-11-02T16:42:32.954Z,8.40
2022-11-02T16:45:42.290Z,8.60
2022-11-02T16:49:20.811Z,8.07
2022-11-02T16:52:03.957Z,8.55
2022-11-02T16:54:37.013Z,9.25
2022-11-02T16:57:13.879Z,9.01
2022-11-02T17:00:07.810Z,9.20
2022-11-02T17:02:42.642Z,9.25
2022-11-02T17:05:22.699Z,9.08
2022-11-02T17:08:38.086Z,8.95
2022-11-02T17:11:18.557Z,8.78
2022-11-02T17:14:02.202Z,8.88
2022-11-02T17:16:37.123Z,7.42
2022-11-02T17:19:49.067Z,8.24
2022-11-02T17:22:32.498Z,8.40
2022-11-02T17:25:34.897Z,8.97
2022-11-02T17:28:40.894Z,8.26
2022-11-02T17:31:32.473Z,7.80
2022-11-02T17:34:18.419Z,8.19
2022-11-02T17:36:55.872Z,8.51
2022-11-02T17:39:32.654Z,8.93
2022-11-02T17:42:21.610Z,8.72
2022-11-02T17:44:50.832Z,9.26
2022-11-02T17:47:22.934Z,8.79
2022-11-02T17:50:10.003Z,8.96
2022-11-02T17:52:43.011Z,8.80
2022-11-02T17:55:22.319Z,8.09
2022-11-02T17:57:58.900Z,7.98
2022-11-02T18:00:32.115Z,8.55
2022-11-02T18:03:04.607Z,8.79
2022-11-02T18:05:39.059Z,8.40
2022-11-02T18:08:11.017Z,8.76
2022-11-02T18:10:52.155Z,8.40
2022-11-02T18:13:24.742Z,8.83
2022-11-02T18:15:58.478Z,8.46
2022-11-02T18:18:32.571Z,8.61
2022-11-02T18:21:05.391Z,8.65
2022-11-02T18:23:36.436Z,8.65
2022-11-02T18:26:09.473Z,8.06
2022-11-02T18:28:46.262Z,7.83
2022-11-02T18:31:17.930Z,7.78
2022-11-02T18:34:37.084Z,7.58
2022-11-02T18:37:14.905Z,7.55
2022-11-02T18:39:49.572Z,8.32
2022-11-02T18:42:20.836Z,8.35
2022-11-02T18:44:53.151Z,8.44
2022-11-02T18:47:25.701Z,7.93
2022-11-02T18:50:05.490Z,7.96
2022-11-02T18:52:38.025Z,8.06
2022-11-02T18:55:10.467Z,8.34
2022-11-02T18:57:41.897Z,7.26
2022-11-02T19:00:17.092Z,7.73
2022-11-02T19:02:48.181Z,8.12
2022-11-02T19:06:16.423Z,8.28
2022-11-02T19:09:06.045Z,8.25
2022-11-02T19:11:40.691Z,8.52
2022-11-02T19:14:12.806Z,8.63
2022-11-02T19:16:45.133Z,8.49
2022-11-02T19:19:14.846Z,8.30
2022-11-02T19:21:47.734Z,8.88
2022-11-02T19:24:21.998Z,8.41
2022-11-02T19:26:54.537Z,8.22
2022-11-02T19:29:36.946Z,8.34
2022-11-02T19:32:10.483Z,8.29
2022-11-02T19:34:43.392Z,8.22
2022-11-02T19:37:17.460Z,8.59
2022-11-02T19:39:48.994Z,8.64
2022-11-02T19:42:20.822Z,8.52
2022-11-02T19:44:57.974Z,8.20
2022-11-02T19:47:33.004Z,7.86
2022-11-02T19:50:05.482Z,8.53
2022-11-02T19:52:37.382Z,8.47
2022-11-02T19:55:09.436Z,8.68
2022-11-02T19:57:41.109Z,8.55
2022-11-02T20:00:13.219Z,8.25
2022-11-02T20:02:51.988Z,8.16
2022-11-02T20:05:24.954Z,8.35
2022-11-02T20:08:05.929Z,8.04
2022-11-02T20:10:37.948Z,8.06
2022-11-02T20:13:09.170Z,8.40
2022-11-02T20:15:46.917Z,8.51
2022-11-02T20:18:20.060Z,7.67
2022-11-02T20:21:07.555Z,7.84
2022-11-02T20:23:54.114Z,7.81
2022-11-02T20:26:55.240Z,7.59
2022-11-02T20:30:13.126Z,7.27
2022-11-02T20:32:54.618Z,7.75
2022-11-02T20:40:47.491Z,7.62
2022-11-02T20:43:50.235Z,7.89
2022-11-02T20:46:40.092Z,7.54
2022-11-02T20:49:22.181Z,8.25
2022-11-02T20:52:00.580Z,8.46
2022-11-02T20:54:39.017Z,8.50
2022-11-02T20:57:17.971Z,8.03
2022-11-02T20:59:48.733Z,8.21
2022-11-02T21:02:23.616Z,8.22
2022-11-02T21:05:02.503Z,8.61
2022-11-02T21:07:33.951Z,8.29
2022-11-02T21:10:12.845Z,8.25
2022-11-02T21:13:03.612Z,8.18
2022-11-02T21:15:38.046Z,8.72
2022-11-02T21:18:13.365Z,8.70
2022-11-02T21:20:46.659Z,8.65
2022-11-02T21:23:20.451Z,8.57
2022-11-02T21:26:04.778Z,8.12
2022-11-02T21:28:39.302Z,7.97
2022-11-02T21:31:14.369Z,8.37
2022-11-02T21:33:58.106Z,8.18
2022-11-02T21:36:30.719Z,8.60
2022-11-02T21:39:04.337Z,8.08
2022-11-02T21:41:39.139Z,6.93
2022-11-02T21:44:13.149Z,6.99
2022-11-02T21:46:44.637Z,7.57
2022-11-02T21:49:16.848Z,8.14
2022-11-02T21:51:46.822Z,8.14
2022-11-02T21:54:18.515Z,8.52
2022-11-02T21:56:59.550Z,8.57
2022-11-02T22:04:34.807Z,7.96
2022-11-02T22:07:10.304Z,8.24
2022-11-02T22:09:42.320Z,8.09
2022-11-02T22:12:30.609Z,8.22
2022-11-02T22:15:10.825Z,8.50
2022-11-02T22:17:50.041Z,8.31
2022-11-02T22:20:30.086Z,8.29
2022-11-02T23:57:31.838Z,9.20
